createdAt,value
2017-08-09T00:00:36.412Z,22.35
2017-08-09T00:01:36.100Z,22.45
2017-08-09T00:02:36.414Z,22.43
2017-08-09T00:03:36.430Z,22.43
2017-08-09T00:04:36.397Z,22.4
2017-08-09T00:05:36.420Z,22.35
2017-08-09T00:06:36.389Z,22.37
2017-08-09T00:07:36.395Z,22.37
2017-08-09T00:08:36.410Z,22.35
2017-08-09T00:09:36.417Z,22.33
2017-08-09T00:10:36.413Z,22.31
2017-08-09T00:11:36.086Z,22.31
2017-08-09T00:12:36.401Z,22.33
2017-08-09T00:13:36.407Z,22.31
2017-08-09T00:14:36.412Z,22.35
2017-08-09T00:15:36.396Z,22.36
2017-08-09T00:16:36.406Z,22.28
2017-08-09T00:17:36.076Z,22.37
2017-08-09T00:18:36.402Z,22.28
2017-08-09T00:19:36.391Z,22.3
2017-08-09T00:20:36.399Z,22.33
2017-08-09T00:21:36.384Z,22.27
2017-08-09T00:22:36.396Z,22.28
2017-08-09T00:23:36.099Z,22.28
2017-08-09T00:24:36.386Z,22.33
2017-08-09T00:25:35.772Z,22.3
2017-08-09T00:26:36.377Z,22.35
2017-08-09T00:27:36.385Z,22.28
2017-08-09T00:28:36.384Z,22.28
2017-08-09T00:29:36.384Z,22.33
2017-08-09T00:30:36.388Z,22.27
2017-08-09T00:31:36.372Z,22.33
2017-08-09T00:32:36.389Z,22.33
2017-08-09T00:33:36.058Z,22.4
2017-08-09T00:34:36.376Z,22.24
2017-08-09T00:35:36.065Z,22.22
2017-08-09T00:36:36.381Z,22.36
2017-08-09T00:37:36.370Z,22.3
2017-08-09T00:38:36.076Z,22.31
2017-08-09T00:39:36.061Z,22.28
2017-08-09T00:40:36.373Z,22.3
2017-08-09T00:41:35.752Z,22.3
2017-08-09T00:42:36.375Z,22.25
2017-08-09T00:43:36.366Z,22.27
2017-08-09T00:44:36.055Z,22.25
2017-08-09T00:45:36.376Z,22.24
2017-08-09T00:46:36.353Z,22.24
2017-08-09T00:47:36.060Z,22.24
2017-08-09T00:48:36.364Z,22.21
2017-08-09T00:49:36.058Z,22.24
2017-08-09T00:50:36.360Z,22.22
2017-08-09T00:51:36.364Z,22.25
2017-08-09T00:52:36.363Z,22.17
2017-08-09T00:53:36.375Z,22.27
2017-08-09T00:54:36.335Z,22.17
2017-08-09T00:55:36.358Z,22.18
2017-08-09T00:56:36.357Z,22.18
2017-08-09T00:57:36.344Z,22.17
2017-08-09T00:58:36.036Z,22.2
2017-08-09T00:59:36.042Z,22.2
2017-08-09T01:00:36.359Z,22.2
2017-08-09T01:01:36.364Z,22.21
2017-08-09T01:02:36.343Z,22.1
2017-08-09T01:03:36.053Z,22.17
2017-08-09T01:04:36.350Z,22.12
2017-08-09T01:05:36.352Z,22.17
2017-08-09T01:06:36.345Z,22.21
2017-08-09T01:07:36.356Z,22.12
2017-08-09T01:08:36.347Z,22.09
2017-08-09T01:09:36.331Z,22.09
2017-08-09T01:10:36.343Z,22.1
2017-08-09T01:11:36.347Z,22.05
2017-08-09T01:12:36.333Z,22.1
2017-08-09T01:13:36.344Z,21.98
2017-08-09T01:14:36.333Z,21.99
2017-08-09T01:15:36.336Z,22
2017-08-09T01:16:36.373Z,22.05
2017-08-09T01:17:36.343Z,21.98
2017-08-09T01:18:36.335Z,22.09
2017-08-09T01:19:36.339Z,22.03
2017-08-09T01:20:36.377Z,21.92
2017-08-09T01:21:36.021Z,21.94
2017-08-09T01:22:36.320Z,21.94
2017-08-09T01:23:36.013Z,21.9
2017-08-09T01:24:36.004Z,21.99
2017-08-09T01:25:36.315Z,21.91
2017-08-09T01:26:36.015Z,21.88
2017-08-09T01:27:36.527Z,21.82
2017-08-09T01:28:36.316Z,21.82
2017-08-09T01:29:36.001Z,21.84
2017-08-09T01:30:36.308Z,21.86
2017-08-09T01:31:36.330Z,21.83
2017-08-09T01:32:36.308Z,21.8
2017-08-09T01:33:36.039Z,21.74
2017-08-09T01:34:36.309Z,21.72
2017-08-09T01:35:36.011Z,21.75
2017-08-09T01:36:35.994Z,21.74
2017-08-09T01:37:36.005Z,21.71
2017-08-09T01:38:35.987Z,21.71
2017-08-09T01:39:35.998Z,21.61
2017-08-09T01:40:35.993Z,21.68
2017-08-09T01:41:36.000Z,21.68
2017-08-09T01:42:36.288Z,21.67
2017-08-09T01:43:36.303Z,21.72
2017-08-09T01:44:36.301Z,21.62
2017-08-09T01:45:36.300Z,21.62
2017-08-09T01:46:36.276Z,21.64
2017-08-09T01:47:36.300Z,21.67
2017-08-09T01:48:36.300Z,21.62
2017-08-09T01:49:36.298Z,21.64
2017-08-09T01:50:35.965Z,21.5
2017-08-09T01:51:36.287Z,21.54
2017-08-09T01:52:36.283Z,21.5
2017-08-09T01:53:36.283Z,21.54
2017-08-09T01:54:36.271Z,21.49
2017-08-09T01:55:36.295Z,21.47
2017-08-09T01:56:36.279Z,21.47
2017-08-09T01:57:36.293Z,21.5
2017-08-09T01:58:35.963Z,21.44
2017-08-09T01:59:36.277Z,21.43
2017-08-09T02:00:36.270Z,21.37
2017-08-09T02:01:36.279Z,21.34
2017-08-09T02:02:36.286Z,21.42
2017-08-09T02:03:36.277Z,21.34
2017-08-09T02:04:36.268Z,21.28
2017-08-09T02:05:35.957Z,21.21
2017-08-09T02:06:35.961Z,21.22
2017-08-09T02:07:35.947Z,21.14
2017-08-09T02:08:35.963Z,21.04
2017-08-09T02:09:35.944Z,21.14
2017-08-09T02:10:36.264Z,21.1
2017-08-09T02:11:36.240Z,21.01
2017-08-09T02:12:35.948Z,20.99
2017-08-09T02:13:35.953Z,20.88
2017-08-09T02:14:35.933Z,20.84
2017-08-09T02:15:36.243Z,20.84
2017-08-09T02:16:36.236Z,20.73
2017-08-09T02:17:35.950Z,20.61
2017-08-09T02:18:36.258Z,20.62
2017-08-09T02:19:36.233Z,20.54
2017-08-09T02:20:36.240Z,20.51
2017-08-09T02:21:36.242Z,20.48
2017-08-09T02:22:35.933Z,20.39
2017-08-09T02:23:35.913Z,20.35
2017-08-09T02:24:35.929Z,20.32
2017-08-09T02:25:36.210Z,20.36
2017-08-09T02:26:36.233Z,20.24
2017-08-09T02:27:36.222Z,20.26
2017-08-09T02:28:35.928Z,20.31
2017-08-09T02:29:36.234Z,20.24
2017-08-09T02:30:36.232Z,20.16
2017-08-09T02:31:36.224Z,20.24
2017-08-09T02:32:36.219Z,20.13
2017-08-09T02:33:36.202Z,20.13
2017-08-09T02:34:36.200Z,20.06
2017-08-09T02:35:36.213Z,20.1
2017-08-09T02:36:35.912Z,20.11
2017-08-09T02:37:36.199Z,20.11
2017-08-09T02:38:36.205Z,20.03
2017-08-09T02:39:36.197Z,20.05
2017-08-09T02:40:36.206Z,20.05
2017-08-09T02:41:36.181Z,20.03
2017-08-09T02:42:36.221Z,20.05
2017-08-09T02:43:36.172Z,20.03
2017-08-09T02:44:36.184Z,20.05
2017-08-09T02:45:36.182Z,19.95
2017-08-09T02:46:36.191Z,20.03
2017-08-09T02:47:35.873Z,19.99
2017-08-09T02:48:36.190Z,20.06
2017-08-09T02:49:36.161Z,19.94
2017-08-09T02:50:36.174Z,19.92
2017-08-09T02:51:36.168Z,19.96
2017-08-09T02:52:36.176Z,19.99
2017-08-09T02:53:36.162Z,19.91
2017-08-09T02:54:36.176Z,19.92
2017-08-09T02:55:36.170Z,19.91
2017-08-09T02:56:36.160Z,19.88
2017-08-09T02:57:36.153Z,19.83
2017-08-09T02:58:36.161Z,19.87
2017-08-09T02:59:36.146Z,19.81
2017-08-09T03:00:36.181Z,19.84
2017-08-09T03:01:35.840Z,19.83
2017-08-09T03:02:36.159Z,19.88
2017-08-09T03:03:36.140Z,19.73
2017-08-09T03:04:36.129Z,19.77
2017-08-09T03:05:36.137Z,19.81
2017-08-09T03:06:36.137Z,19.83
2017-08-09T03:07:36.133Z,19.77
2017-08-09T03:08:36.140Z,19.78
2017-08-09T03:09:36.116Z,19.78
2017-08-09T03:10:36.138Z,19.68
2017-08-09T03:11:36.121Z,19.76
2017-08-09T03:12:36.124Z,19.83
2017-08-09T03:13:36.102Z,19.77
2017-08-09T03:14:35.815Z,19.74
2017-08-09T03:15:36.099Z,19.66
2017-08-09T03:16:35.798Z,19.69
2017-08-09T03:17:36.104Z,19.78
2017-08-09T03:18:36.121Z,19.66
2017-08-09T03:19:36.108Z,19.68
2017-08-09T03:20:36.096Z,19.61
2017-08-09T03:21:36.096Z,19.62
2017-08-09T03:22:36.079Z,19.59
2017-08-09T03:23:36.103Z,19.5
2017-08-09T03:24:36.086Z,19.48
2017-08-09T03:25:36.138Z,19.51
2017-08-09T03:26:36.094Z,19.47
2017-08-09T03:27:36.093Z,19.4
2017-08-09T03:28:36.085Z,19.36
2017-08-09T03:29:36.080Z,19.4
2017-08-09T03:30:36.102Z,19.31
2017-08-09T03:31:36.080Z,19.31
2017-08-09T03:32:36.085Z,19.33
2017-08-09T03:33:36.074Z,19.32
2017-08-09T03:34:36.073Z,19.28
2017-08-09T03:35:36.076Z,19.26
2017-08-09T03:36:36.068Z,19.29
2017-08-09T03:37:36.050Z,19.23
2017-08-09T03:38:36.063Z,19.28
2017-08-09T03:39:36.055Z,19.31
2017-08-09T03:40:36.062Z,19.31
2017-08-09T03:41:36.061Z,19.31
2017-08-09T03:42:36.042Z,19.37
2017-08-09T03:43:36.038Z,19.29
2017-08-09T03:44:36.048Z,19.29
2017-08-09T03:45:36.046Z,19.36
2017-08-09T03:46:36.034Z,19.32
2017-08-09T03:47:36.040Z,19.39
2017-08-09T03:48:36.033Z,19.4
2017-08-09T03:49:36.042Z,19.33
2017-08-09T03:50:36.018Z,19.46
2017-08-09T03:51:36.028Z,19.39
2017-08-09T03:52:36.023Z,19.37
2017-08-09T03:53:35.712Z,19.36
2017-08-09T03:54:36.007Z,19.39
2017-08-09T03:55:36.024Z,19.46
2017-08-09T03:56:36.025Z,19.48
2017-08-09T03:57:36.017Z,19.4
2017-08-09T03:58:35.988Z,19.41
2017-08-09T03:59:36.010Z,19.43
2017-08-09T04:00:35.989Z,19.48
2017-08-09T04:01:36.006Z,19.46
2017-08-09T04:02:35.979Z,19.47
2017-08-09T04:03:36.004Z,19.54
2017-08-09T04:04:35.988Z,19.51
2017-08-09T04:05:35.995Z,19.48
2017-08-09T04:06:35.987Z,19.55
2017-08-09T04:07:35.975Z,19.58
2017-08-09T04:08:36.236Z,19.65
2017-08-09T04:09:35.982Z,19.65
2017-08-09T04:10:35.995Z,19.58
2017-08-09T04:11:35.662Z,19.71
2017-08-09T04:12:35.966Z,19.68
2017-08-09T04:13:35.961Z,19.76
2017-08-09T04:14:35.977Z,19.71
2017-08-09T04:15:35.962Z,19.73
2017-08-09T04:16:35.959Z,19.71
2017-08-09T04:17:35.947Z,19.73
2017-08-09T04:18:35.971Z,19.81
2017-08-09T04:19:35.956Z,19.69
2017-08-09T04:20:35.949Z,19.74
2017-08-09T04:21:35.959Z,19.78
2017-08-09T04:22:35.923Z,19.81
2017-08-09T04:23:35.945Z,19.71
2017-08-09T04:24:35.935Z,19.78
2017-08-09T04:25:35.948Z,19.73
2017-08-09T04:26:35.942Z,19.8
2017-08-09T04:27:35.930Z,19.8
2017-08-09T04:28:35.923Z,19.73
2017-08-09T04:29:44.392Z,19.8
2017-08-09T04:30:35.638Z,19.8
2017-08-09T04:31:35.928Z,19.84
2017-08-09T04:32:35.605Z,19.88
2017-08-09T04:33:35.936Z,19.94
2017-08-09T04:34:35.903Z,19.96
2017-08-09T04:35:35.927Z,19.91
2017-08-09T04:36:35.899Z,19.92
2017-08-09T04:37:35.917Z,19.91
2017-08-09T04:38:35.900Z,20.03
2017-08-09T04:39:35.908Z,20.06
2017-08-09T04:40:35.900Z,20.08
2017-08-09T04:41:35.906Z,20.05
2017-08-09T04:42:35.595Z,20.01
2017-08-09T04:43:35.890Z,20.08
2017-08-09T04:44:35.890Z,20.17
2017-08-09T04:45:35.592Z,20.14
2017-08-09T04:46:35.890Z,20.13
2017-08-09T04:47:35.903Z,20.11
2017-08-09T04:48:35.883Z,20.17
2017-08-09T04:49:35.583Z,20.28
2017-08-09T04:50:35.885Z,20.26
2017-08-09T04:51:35.884Z,20.41
2017-08-09T04:52:35.885Z,20.64
2017-08-09T04:53:35.877Z,20.85
2017-08-09T04:54:35.857Z,21.13
2017-08-09T04:55:35.879Z,21.34
2017-08-09T04:56:35.864Z,21.68
2017-08-09T04:57:35.884Z,21.9
2017-08-09T04:58:35.886Z,22.07
2017-08-09T04:59:35.882Z,22.25
2017-08-09T05:00:35.868Z,22.28
2017-08-09T05:01:35.854Z,22.33
2017-08-09T05:02:35.880Z,22.47
2017-08-09T05:03:35.874Z,22.62
2017-08-09T05:04:35.881Z,22.76
2017-08-09T05:05:35.849Z,22.9
2017-08-09T05:06:35.876Z,23.12
2017-08-09T05:07:35.873Z,23.32
2017-08-09T05:08:35.871Z,23.57
2017-08-09T05:09:35.874Z,23.73
2017-08-09T05:10:35.883Z,23.97
2017-08-09T05:11:35.880Z,24.18
2017-08-09T05:12:35.561Z,24.45
2017-08-09T05:13:35.883Z,24.73
2017-08-09T05:14:35.889Z,25.03
2017-08-09T05:15:35.877Z,25.39
2017-08-09T05:16:35.881Z,25.76
2017-08-09T05:17:35.867Z,26.06
2017-08-09T05:18:35.597Z,26.54
2017-08-09T05:19:35.579Z,26.89
2017-08-09T05:20:35.903Z,27.24
2017-08-09T05:21:35.886Z,27.66
2017-08-09T05:22:35.918Z,28.07
2017-08-09T05:23:35.910Z,28.22
2017-08-09T05:24:35.911Z,28.66
2017-08-09T05:25:35.918Z,29.06
2017-08-09T05:26:35.928Z,29.39
2017-08-09T05:27:35.946Z,29.68
2017-08-09T05:28:35.938Z,29.94
2017-08-09T05:29:35.623Z,30.23
2017-08-09T05:30:35.938Z,30.57
2017-08-09T05:31:36.268Z,30.8
2017-08-09T05:32:35.974Z,31.06
2017-08-09T05:33:35.981Z,31.35
2017-08-09T05:34:35.987Z,31.66
2017-08-09T05:35:35.687Z,31.91
2017-08-09T05:36:36.011Z,32.15
2017-08-09T05:37:36.001Z,32.41
2017-08-09T05:38:36.016Z,32.57
2017-08-09T05:39:36.018Z,32.74
2017-08-09T05:40:36.044Z,32.79
2017-08-09T05:41:36.045Z,32.97
2017-08-09T05:42:36.068Z,33.15
2017-08-09T05:43:35.800Z,33.34
2017-08-09T05:44:36.071Z,33.32
2017-08-09T05:45:36.080Z,33.35
2017-08-09T05:46:36.080Z,33.44
2017-08-09T05:47:36.106Z,33.47
2017-08-09T05:48:36.105Z,33.61
2017-08-09T05:49:36.125Z,33.76
2017-08-09T05:50:36.121Z,34
2017-08-09T05:51:36.148Z,34.21
2017-08-09T05:52:36.146Z,34.35
2017-08-09T05:53:36.171Z,34.54
2017-08-09T05:54:36.155Z,34.77
2017-08-09T05:55:36.190Z,34.96
2017-08-09T05:56:36.225Z,35.18
2017-08-09T05:57:36.212Z,35.29
2017-08-09T05:58:36.202Z,35.36
2017-08-09T05:59:36.236Z,35.4
2017-08-09T06:00:36.233Z,35.41
2017-08-09T06:01:36.253Z,35.45
2017-08-09T06:02:36.259Z,35.33
2017-08-09T06:03:36.283Z,35.22
2017-08-09T06:04:36.289Z,35.21
2017-08-09T06:05:36.307Z,35.15
2017-08-09T06:06:36.295Z,35.21
2017-08-09T06:07:36.331Z,35.31
2017-08-09T06:08:36.329Z,35.41
2017-08-09T06:09:36.353Z,35.5
2017-08-09T06:10:36.345Z,35.62
2017-08-09T06:11:36.364Z,35.6
2017-08-09T06:12:36.380Z,35.72
2017-08-09T06:13:36.397Z,35.72
2017-08-09T06:14:36.392Z,36
2017-08-09T06:15:36.412Z,36.19
2017-08-09T06:16:36.420Z,36.22
2017-08-09T06:17:36.446Z,36.38
2017-08-09T06:18:36.465Z,36.53
2017-08-09T06:19:36.460Z,36.62
2017-08-09T06:20:36.477Z,36.35
2017-08-09T06:21:36.488Z,36.27
2017-08-09T06:22:36.503Z,36.17
2017-08-09T06:23:36.616Z,36.23
2017-08-09T06:24:36.538Z,36.35
2017-08-09T06:25:36.529Z,36.59
2017-08-09T06:26:36.245Z,36.78
2017-08-09T06:27:36.565Z,36.83
2017-08-09T06:28:36.588Z,36.9
2017-08-09T06:29:36.290Z,37.15
2017-08-09T06:30:36.585Z,37.18
2017-08-09T06:31:36.314Z,37.32
2017-08-09T06:32:36.639Z,37.36
2017-08-09T06:33:36.333Z,37.34
2017-08-09T06:34:36.663Z,37.51
2017-08-09T06:35:36.358Z,37.43
2017-08-09T06:36:36.715Z,37.46
2017-08-09T06:37:36.697Z,37.62
2017-08-09T06:38:36.730Z,37.76
2017-08-09T06:39:36.724Z,37.93
2017-08-09T06:40:36.764Z,38.12
2017-08-09T06:41:36.160Z,38.28
2017-08-09T06:42:36.782Z,38.42
2017-08-09T06:43:36.786Z,38.66
2017-08-09T06:44:36.817Z,38.79
2017-08-09T06:45:36.820Z,38.9
2017-08-09T06:46:36.846Z,38.84
2017-08-09T06:47:36.860Z,38.84
2017-08-09T06:48:36.557Z,38.57
2017-08-09T06:49:36.917Z,38.44
2017-08-09T06:50:36.885Z,38.38
2017-08-09T06:51:36.933Z,38.26
2017-08-09T06:52:36.924Z,38.15
2017-08-09T06:53:36.948Z,38.11
2017-08-09T06:54:37.121Z,38.11
2017-08-09T06:55:36.981Z,38.11
2017-08-09T06:56:37.011Z,38.25
2017-08-09T06:57:37.022Z,38.38
2017-08-09T06:58:37.031Z,38.47
2017-08-09T06:59:37.039Z,38.5
2017-08-09T07:00:37.038Z,38.49
2017-08-09T07:01:37.053Z,38.49
2017-08-09T07:02:36.786Z,38.47
2017-08-09T07:03:37.108Z,38.34
2017-08-09T07:04:37.119Z,38.41
2017-08-09T07:05:37.122Z,38.2
2017-08-09T07:06:36.831Z,38.16
2017-08-09T07:07:37.169Z,37.98
2017-08-09T07:08:37.178Z,37.86
2017-08-09T07:09:37.201Z,37.82
2017-08-09T07:10:37.203Z,37.85
2017-08-09T07:11:37.231Z,37.89
2017-08-09T07:12:37.211Z,38.11
2017-08-09T07:13:36.921Z,38.25
2017-08-09T07:14:37.249Z,38.44
2017-08-09T07:15:37.282Z,38.44
2017-08-09T07:16:37.293Z,38.52
2017-08-09T07:17:37.306Z,38.68
2017-08-09T07:18:36.985Z,38.68
2017-08-09T07:19:37.345Z,38.59
2017-08-09T07:20:37.337Z,38.47
2017-08-09T07:21:37.054Z,38.49
2017-08-09T07:22:37.373Z,38.46
2017-08-09T07:23:37.399Z,38.57
2017-08-09T07:24:37.396Z,38.65
2017-08-09T07:25:37.423Z,38.66
2017-08-09T07:26:37.107Z,38.59
2017-08-09T07:27:37.460Z,38.49
2017-08-09T07:28:37.136Z,38.5
2017-08-09T07:29:37.481Z,38.57
2017-08-09T07:30:37.501Z,38.71
2017-08-09T07:31:37.519Z,38.71
2017-08-09T07:32:37.533Z,38.71
2017-08-09T07:33:37.528Z,38.47
2017-08-09T07:34:37.541Z,38.3
2017-08-09T07:35:37.242Z,38.13
2017-08-09T07:36:37.277Z,38.11
2017-08-09T07:37:37.588Z,38.07
2017-08-09T07:38:37.611Z,38.15
2017-08-09T07:39:37.335Z,38.19
2017-08-09T07:40:37.654Z,38.04
2017-08-09T07:41:37.644Z,37.76
2017-08-09T07:42:37.676Z,37.47
2017-08-09T07:43:37.673Z,37.49
2017-08-09T07:44:37.693Z,37.47
2017-08-09T07:45:37.724Z,37.51
2017-08-09T07:46:37.717Z,37.63
2017-08-09T07:47:37.744Z,37.86
2017-08-09T07:48:37.443Z,38.03
2017-08-09T07:49:37.767Z,38.25
2017-08-09T07:50:37.459Z,38.26
2017-08-09T07:51:37.797Z,38.28
2017-08-09T07:52:37.498Z,38.2
2017-08-09T07:53:37.821Z,37.98
2017-08-09T07:54:37.536Z,37.97
2017-08-09T07:55:37.543Z,37.82
2017-08-09T07:56:37.865Z,37.75
2017-08-09T07:57:37.580Z,37.75
2017-08-09T07:58:37.879Z,37.93
2017-08-09T07:59:37.602Z,38.06
2017-08-09T08:00:37.922Z,38.35
2017-08-09T08:01:37.959Z,38.38
2017-08-09T08:02:37.630Z,38.74
2017-08-09T08:03:37.346Z,38.9
2017-08-09T08:04:37.665Z,39.11
2017-08-09T08:05:37.992Z,39.17
2017-08-09T08:06:38.014Z,39.1
2017-08-09T08:07:38.014Z,38.98
2017-08-09T08:08:38.050Z,38.84
2017-08-09T08:09:38.070Z,38.87
2017-08-09T08:10:38.069Z,38.66
2017-08-09T08:11:38.093Z,38.47
2017-08-09T08:12:38.102Z,38.13
2017-08-09T08:13:38.135Z,37.96
2017-08-09T08:14:38.116Z,37.74
2017-08-09T08:15:38.164Z,37.47
2017-08-09T08:16:38.169Z,37.47
2017-08-09T08:17:37.875Z,37.31
2017-08-09T08:18:37.888Z,37.17
2017-08-09T08:19:37.907Z,37.09
2017-08-09T08:20:38.241Z,36.76
2017-08-09T08:21:38.239Z,36.59
2017-08-09T08:22:38.246Z,36.28
2017-08-09T08:23:38.257Z,36.27
2017-08-09T08:24:38.282Z,36.05
2017-08-09T08:25:38.301Z,35.99
2017-08-09T08:26:38.312Z,35.92
2017-08-09T08:27:38.312Z,35.85
2017-08-09T08:28:38.339Z,35.72
2017-08-09T08:29:38.026Z,35.6
2017-08-09T08:30:38.353Z,35.6
2017-08-09T08:31:38.342Z,35.5
2017-08-09T08:32:38.370Z,35.26
2017-08-09T08:33:38.385Z,35.03
2017-08-09T08:34:38.402Z,34.81
2017-08-09T08:35:38.391Z,34.62
2017-08-09T08:36:38.422Z,34.46
2017-08-09T08:37:38.115Z,34.4
2017-08-09T08:38:38.428Z,34.34
2017-08-09T08:39:38.442Z,34.27
2017-08-09T08:40:38.465Z,34.19
2017-08-09T08:41:38.164Z,34.16
2017-08-09T08:42:38.181Z,34.12
2017-08-09T08:43:38.490Z,34
2017-08-09T08:44:38.493Z,33.95
2017-08-09T08:45:38.498Z,33.91
2017-08-09T08:46:38.531Z,33.78
2017-08-09T08:47:38.517Z,33.54
2017-08-09T08:48:38.548Z,33.37
2017-08-09T08:49:38.248Z,33.19
2017-08-09T08:50:38.574Z,33
2017-08-09T08:51:38.564Z,32.84
2017-08-09T08:52:38.578Z,32.69
2017-08-09T08:53:38.537Z,32.56
2017-08-09T08:54:38.614Z,32.52
2017-08-09T08:55:38.630Z,32.3
2017-08-09T08:56:38.633Z,32.15
2017-08-09T08:57:38.630Z,31.92
2017-08-09T08:58:38.329Z,31.85
2017-08-09T08:59:38.666Z,31.75
2017-08-09T09:00:38.658Z,31.7
2017-08-09T09:01:38.664Z,31.65
2017-08-09T09:02:38.375Z,31.58
2017-08-09T09:03:38.689Z,31.53
2017-08-09T09:04:38.707Z,31.41
2017-08-09T09:05:38.697Z,31.2
2017-08-09T09:06:38.713Z,31.07
2017-08-09T09:07:38.718Z,30.89
2017-08-09T09:08:38.717Z,30.82
2017-08-09T09:09:38.736Z,30.77
2017-08-09T09:10:38.746Z,30.65
2017-08-09T09:11:38.759Z,30.61
2017-08-09T09:12:38.752Z,30.53
2017-08-09T09:13:38.771Z,30.57
2017-08-09T09:14:38.764Z,30.43
2017-08-09T09:15:38.792Z,30.39
2017-08-09T09:16:38.792Z,30.37
2017-08-09T09:17:38.516Z,30.34
2017-08-09T09:18:38.485Z,30.34
2017-08-09T09:19:38.802Z,30.32
2017-08-09T09:20:38.808Z,30.2
2017-08-09T09:21:38.515Z,30.17
2017-08-09T09:22:38.821Z,30.08
2017-08-09T09:23:38.538Z,30.04
2017-08-09T09:24:38.838Z,29.95
2017-08-09T09:25:38.843Z,29.87
2017-08-09T09:26:38.867Z,29.85
2017-08-09T09:27:38.862Z,29.68
2017-08-09T09:28:38.877Z,29.61
2017-08-09T09:29:38.588Z,29.61
2017-08-09T09:30:38.877Z,29.41
2017-08-09T09:31:38.898Z,29.3
2017-08-09T09:32:38.892Z,29.14
2017-08-09T09:33:38.914Z,29.14
2017-08-09T09:34:38.911Z,29
2017-08-09T09:35:38.603Z,28.83
2017-08-09T09:36:38.915Z,28.85
2017-08-09T09:37:38.626Z,28.62
2017-08-09T09:38:38.933Z,28.56
2017-08-09T09:39:38.950Z,28.52
2017-08-09T09:40:38.937Z,28.55
2017-08-09T09:41:38.938Z,28.41
2017-08-09T09:42:38.963Z,28.48
2017-08-09T09:43:38.649Z,28.39
2017-08-09T09:44:38.945Z,28.39
2017-08-09T09:45:38.973Z,28.31
2017-08-09T09:46:38.980Z,28.29
2017-08-09T09:47:38.671Z,28.18
2017-08-09T09:48:38.992Z,28.17
2017-08-09T09:49:38.995Z,28.21
2017-08-09T09:50:38.986Z,28.21
2017-08-09T09:51:39.044Z,28.12
2017-08-09T09:52:38.994Z,28.19
2017-08-09T09:53:39.007Z,28.07
2017-08-09T09:54:39.029Z,28.04
2017-08-09T09:55:38.702Z,28.03
2017-08-09T09:56:39.011Z,28.09
2017-08-09T09:57:39.032Z,28.09
2017-08-09T09:58:39.043Z,28.07
2017-08-09T09:59:38.736Z,28.04
2017-08-09T10:00:39.046Z,28.03
2017-08-09T10:01:39.046Z,28.09
2017-08-09T10:02:39.032Z,28.06
2017-08-09T10:03:38.749Z,27.96
2017-08-09T10:04:38.761Z,27.99
2017-08-09T10:05:38.754Z,27.96
2017-08-09T10:06:39.058Z,27.9
2017-08-09T10:07:39.086Z,27.87
2017-08-09T10:08:39.088Z,27.78
2017-08-09T10:09:39.084Z,27.78
2017-08-09T10:10:38.771Z,27.72
2017-08-09T10:11:39.109Z,27.77
2017-08-09T10:12:39.110Z,27.7
2017-08-09T10:13:39.102Z,27.72
2017-08-09T10:14:39.127Z,27.59
2017-08-09T10:15:39.106Z,27.62
2017-08-09T10:16:39.134Z,27.51
2017-08-09T10:17:39.130Z,27.51
2017-08-09T10:18:38.807Z,27.6
2017-08-09T10:19:39.142Z,27.59
2017-08-09T10:20:39.137Z,27.66
2017-08-09T10:21:39.154Z,27.59
2017-08-09T10:22:38.842Z,27.57
2017-08-09T10:23:39.151Z,27.62
2017-08-09T10:24:39.144Z,27.63
2017-08-09T10:25:38.537Z,27.59
2017-08-09T10:26:38.532Z,27.59
2017-08-09T10:27:39.170Z,27.55
2017-08-09T10:28:39.177Z,27.66
2017-08-09T10:29:38.862Z,27.59
2017-08-09T10:30:38.557Z,27.55
2017-08-09T10:31:39.170Z,27.46
2017-08-09T10:32:38.877Z,27.49
2017-08-09T10:33:39.188Z,27.44
2017-08-09T10:34:38.915Z,27.4
2017-08-09T10:35:39.193Z,27.43
2017-08-09T10:36:39.199Z,27.43
2017-08-09T10:37:39.192Z,27.46
2017-08-09T10:38:39.211Z,27.5
2017-08-09T10:39:39.202Z,27.55
2017-08-09T10:40:39.217Z,27.59
2017-08-09T10:41:39.216Z,27.55
2017-08-09T10:42:39.224Z,27.62
2017-08-09T10:43:38.909Z,27.57
2017-08-09T10:44:39.252Z,27.57
2017-08-09T10:45:39.232Z,27.55
2017-08-09T10:46:38.924Z,27.54
2017-08-09T10:47:39.246Z,27.49
2017-08-09T10:48:38.951Z,27.47
2017-08-09T10:49:39.250Z,27.47
2017-08-09T10:50:39.270Z,27.44
2017-08-09T10:51:39.259Z,27.41
2017-08-09T10:52:39.267Z,27.43
2017-08-09T10:53:39.259Z,27.51
2017-08-09T10:54:39.274Z,27.44
2017-08-09T10:55:39.272Z,27.55
2017-08-09T10:56:39.280Z,27.67
2017-08-09T10:57:39.288Z,27.72
2017-08-09T10:58:39.278Z,27.75
2017-08-09T10:59:39.271Z,27.79
2017-08-09T11:00:39.281Z,27.74
2017-08-09T11:01:39.290Z,27.87
2017-08-09T11:02:39.305Z,27.94
2017-08-09T11:03:39.311Z,27.99
2017-08-09T11:04:39.314Z,28.14
2017-08-09T11:05:39.312Z,28.18
2017-08-09T11:06:39.310Z,28.33
2017-08-09T11:07:39.328Z,28.34
2017-08-09T11:08:39.329Z,28.48
2017-08-09T11:09:39.313Z,28.4
2017-08-09T11:10:39.029Z,28.49
2017-08-09T11:11:39.519Z,28.44
2017-08-09T11:12:39.348Z,28.52
2017-08-09T11:13:39.371Z,28.49
2017-08-09T11:14:39.357Z,28.44
2017-08-09T11:15:39.339Z,28.41
2017-08-09T11:16:39.350Z,28.46
2017-08-09T11:17:39.043Z,28.44
2017-08-09T11:18:39.373Z,28.58
2017-08-09T11:19:39.381Z,28.62
2017-08-09T11:20:39.383Z,28.52
2017-08-09T11:21:39.065Z,28.56
2017-08-09T11:22:39.411Z,28.49
2017-08-09T11:23:39.081Z,28.48
2017-08-09T11:24:39.395Z,28.55
2017-08-09T11:25:39.383Z,28.56
2017-08-09T11:26:39.418Z,28.52
2017-08-09T11:27:39.397Z,28.62
2017-08-09T11:28:39.108Z,28.64
2017-08-09T11:29:39.104Z,28.66
2017-08-09T11:30:39.120Z,28.64
2017-08-09T11:31:39.421Z,28.64
2017-08-09T11:32:39.436Z,28.66
2017-08-09T11:33:39.428Z,28.64
2017-08-09T11:34:39.135Z,28.61
2017-08-09T11:35:39.447Z,28.59
2017-08-09T11:36:39.455Z,28.59
2017-08-09T11:37:39.450Z,28.64
2017-08-09T11:38:39.458Z,28.64
2017-08-09T11:39:39.462Z,28.67
2017-08-09T11:40:39.163Z,28.74
2017-08-09T11:41:39.478Z,28.7
2017-08-09T11:42:39.483Z,28.7
2017-08-09T11:43:39.477Z,28.7
2017-08-09T11:44:39.187Z,28.7
2017-08-09T11:45:39.178Z,28.68
2017-08-09T11:46:39.499Z,28.71
2017-08-09T11:47:39.504Z,28.73
2017-08-09T11:48:39.487Z,28.81
2017-08-09T11:49:39.505Z,28.89
2017-08-09T11:50:39.519Z,28.9
2017-08-09T11:51:39.535Z,28.96
2017-08-09T11:52:39.520Z,28.98
2017-08-09T11:53:39.213Z,28.86
2017-08-09T11:54:39.527Z,28.78
2017-08-09T11:55:39.235Z,28.74
2017-08-09T11:56:39.221Z,28.81
2017-08-09T11:57:39.554Z,28.8
2017-08-09T11:58:39.533Z,28.88
2017-08-09T11:59:39.565Z,28.83
2017-08-09T12:00:39.558Z,28.93
2017-08-09T12:01:39.252Z,28.92
2017-08-09T12:02:39.577Z,28.92
2017-08-09T12:03:39.557Z,28.96
2017-08-09T12:04:39.256Z,29
2017-08-09T12:05:39.594Z,28.93
2017-08-09T12:06:39.601Z,29.04
2017-08-09T12:07:39.588Z,29.12
2017-08-09T12:08:39.601Z,29.11
2017-08-09T12:09:39.595Z,29.09
2017-08-09T12:10:39.598Z,29.08
2017-08-09T12:11:39.304Z,29.12
2017-08-09T12:12:39.613Z,29.24
2017-08-09T12:13:39.641Z,29.3
2017-08-09T12:14:39.621Z,29.36
2017-08-09T12:15:39.640Z,29.43
2017-08-09T12:16:39.637Z,29.48
2017-08-09T12:17:39.669Z,29.49
2017-08-09T12:18:39.639Z,29.46
2017-08-09T12:19:39.355Z,29.37
2017-08-09T12:20:39.671Z,29.42
2017-08-09T12:21:39.666Z,29.31
2017-08-09T12:22:39.659Z,29.27
2017-08-09T12:23:39.670Z,29.27
2017-08-09T12:24:39.690Z,29.14
2017-08-09T12:25:39.679Z,29.09
2017-08-09T12:26:39.684Z,29.09
2017-08-09T12:27:39.716Z,29.02
2017-08-09T12:28:39.686Z,28.92
2017-08-09T12:29:39.712Z,28.89
2017-08-09T12:30:39.711Z,28.88
2017-08-09T12:31:39.974Z,28.9
2017-08-09T12:32:39.408Z,28.92
2017-08-09T12:33:39.733Z,28.92
2017-08-09T12:34:39.768Z,28.8
2017-08-09T12:35:39.734Z,28.68
2017-08-09T12:36:39.744Z,28.66
2017-08-09T12:37:39.745Z,28.66
2017-08-09T12:38:39.739Z,28.56
2017-08-09T12:39:39.749Z,28.54
2017-08-09T12:40:39.758Z,28.52
2017-08-09T12:41:39.766Z,28.43
2017-08-09T12:42:39.776Z,28.44
2017-08-09T12:43:39.772Z,28.39
2017-08-09T12:44:39.786Z,28.4
2017-08-09T12:45:39.782Z,28.43
2017-08-09T12:46:39.794Z,28.36
2017-08-09T12:47:39.781Z,28.4
2017-08-09T12:48:39.796Z,28.37
2017-08-09T12:49:39.804Z,28.51
2017-08-09T12:50:39.836Z,28.36
2017-08-09T12:51:39.803Z,28.49
2017-08-09T12:52:39.812Z,28.4
2017-08-09T12:53:39.826Z,28.46
2017-08-09T12:54:39.804Z,28.51
2017-08-09T12:55:39.513Z,28.43